createdAt,value
2018-09-06T00:00:02.024Z,20.06
2018-09-06T00:01:55.022Z,20.03
2018-09-06T00:02:55.079Z,20.04
2018-09-06T00:04:48.135Z,19.96
2018-09-06T00:05:48.153Z,19.89
2018-09-06T00:07:41.138Z,19.91
2018-09-06T00:08:41.195Z,19.99
2018-09-06T00:10:34.195Z,19.88
2018-09-06T00:11:34.253Z,19.82
2018-09-06T00:13:27.243Z,19.81
2018-09-06T00:14:27.308Z,19.85
2018-09-06T00:16:20.308Z,19.89
2018-09-06T00:17:20.368Z,19.79
2018-09-06T00:19:13.359Z,19.77
2018-09-06T00:20:13.424Z,19.66
2018-09-06T00:22:06.424Z,19.59
2018-09-06T00:23:06.481Z,19.74
2018-09-06T00:24:59.473Z,19.77
2018-09-06T00:25:59.537Z,19.81
2018-09-06T00:27:52.535Z,19.71
2018-09-06T00:28:52.593Z,19.73
2018-09-06T00:30:45.593Z,19.67
2018-09-06T00:31:45.649Z,19.64
2018-09-06T00:33:38.645Z,19.70
2018-09-06T00:34:38.706Z,19.58
2018-09-06T00:36:31.703Z,19.55
2018-09-06T00:37:31.760Z,19.62
2018-09-06T00:39:24.754Z,19.44
2018-09-06T00:40:24.816Z,19.48
2018-09-06T00:42:17.816Z,19.56
2018-09-06T00:43:17.874Z,19.54
2018-09-06T00:45:10.865Z,19.55
2018-09-06T00:46:10.928Z,19.44
2018-09-06T00:48:03.926Z,19.40
2018-09-06T00:49:03.987Z,19.47
2018-09-06T00:50:56.988Z,19.45
2018-09-06T00:51:57.041Z,19.40
2018-09-06T00:53:50.036Z,19.40
2018-09-06T00:54:50.101Z,19.33
2018-09-06T00:56:43.101Z,19.22
2018-09-06T00:57:43.159Z,19.18
2018-09-06T00:59:36.150Z,19.22
2018-09-06T01:00:36.216Z,19.15
2018-09-06T01:02:29.212Z,19.21
2018-09-06T01:03:29.269Z,19.19
2018-09-06T01:05:22.261Z,19.18
2018-09-06T01:06:22.325Z,19.08
2018-09-06T01:08:15.324Z,19.02
2018-09-06T01:09:15.382Z,18.98
2018-09-06T01:11:08.380Z,18.86
2018-09-06T01:12:08.437Z,18.86
2018-09-06T01:14:01.433Z,18.88
2018-09-06T01:15:01.492Z,18.86
2018-09-06T01:16:54.508Z,18.86
2018-09-06T01:17:54.550Z,18.78
2018-09-06T01:19:47.541Z,18.84
2018-09-06T01:20:47.604Z,18.88
2018-09-06T01:22:40.603Z,18.86
2018-09-06T01:23:40.662Z,18.95
2018-09-06T01:25:33.651Z,18.81
2018-09-06T01:26:33.715Z,18.92
2018-09-06T01:28:26.715Z,18.92
2018-09-06T01:29:26.772Z,18.86
2018-09-06T01:31:19.776Z,18.86
2018-09-06T01:32:19.833Z,18.80
2018-09-06T01:34:12.823Z,18.80
2018-09-06T01:35:12.889Z,18.81
2018-09-06T01:37:05.886Z,18.77
2018-09-06T01:38:05.944Z,18.88
2018-09-06T01:39:58.948Z,18.77
2018-09-06T01:40:59.011Z,18.75
2018-09-06T01:42:52.011Z,18.80
2018-09-06T01:43:52.067Z,18.78
2018-09-06T01:45:45.065Z,18.80
2018-09-06T01:46:45.122Z,18.66
2018-09-06T01:48:38.120Z,18.66
2018-09-06T01:49:38.179Z,18.65
2018-09-06T01:51:31.175Z,18.66
2018-09-06T01:52:31.231Z,18.68
2018-09-06T01:54:24.224Z,18.66
2018-09-06T01:55:24.290Z,18.70
2018-09-06T01:57:17.290Z,18.78
2018-09-06T01:58:17.348Z,18.83
2018-09-06T02:00:10.340Z,18.77
2018-09-06T02:01:10.405Z,18.77
2018-09-06T02:03:03.411Z,18.83
2018-09-06T02:04:03.466Z,18.88
2018-09-06T02:05:56.458Z,18.95
2018-09-06T02:06:56.529Z,18.98
2018-09-06T02:08:49.516Z,18.88
2018-09-06T02:09:49.576Z,18.88
2018-09-06T02:11:42.574Z,18.88
2018-09-06T02:12:42.639Z,18.86
2018-09-06T02:14:35.627Z,18.83
2018-09-06T02:15:35.689Z,18.73
2018-09-06T02:17:28.689Z,18.74
2018-09-06T02:18:28.747Z,18.80
2018-09-06T02:20:21.744Z,18.73
2018-09-06T02:21:21.806Z,18.68
2018-09-06T02:23:14.803Z,18.62
2018-09-06T02:24:14.867Z,18.56
2018-09-06T02:26:07.855Z,18.52
2018-09-06T02:27:07.921Z,18.43
2018-09-06T02:29:00.922Z,18.45
2018-09-06T02:30:00.983Z,18.40
2018-09-06T02:31:53.979Z,18.31
2018-09-06T02:32:54.036Z,18.26
2018-09-06T02:34:47.023Z,18.43
2018-09-06T02:35:47.088Z,18.35
2018-09-06T02:37:40.090Z,18.33
2018-09-06T02:38:40.149Z,18.28
2018-09-06T02:40:33.140Z,18.13
2018-09-06T02:41:33.203Z,18.19
2018-09-06T02:43:26.208Z,18.10
2018-09-06T02:44:26.265Z,18.08
2018-09-06T02:46:19.255Z,18.10
2018-09-06T02:47:19.319Z,18.03
2018-09-06T02:49:12.318Z,17.92
2018-09-06T02:50:12.380Z,17.97
2018-09-06T02:52:05.378Z,17.92
2018-09-06T02:53:05.433Z,17.97
2018-09-06T02:54:58.425Z,17.95
2018-09-06T02:55:58.488Z,17.97
2018-09-06T02:57:51.492Z,17.97
2018-09-06T02:58:51.549Z,17.92
2018-09-06T03:00:44.541Z,17.98
2018-09-06T03:01:44.605Z,17.94
2018-09-06T03:03:37.607Z,17.92
2018-09-06T03:04:37.662Z,17.89
2018-09-06T03:06:31.167Z,17.87
2018-09-06T03:07:31.224Z,17.85
2018-09-06T03:09:24.218Z,17.90
2018-09-06T03:10:24.275Z,17.85
2018-09-06T03:12:17.271Z,17.83
2018-09-06T03:13:17.327Z,17.74
2018-09-06T03:15:10.326Z,17.85
2018-09-06T03:16:10.389Z,17.76
2018-09-06T03:18:03.391Z,17.79
2018-09-06T03:19:03.441Z,17.79
2018-09-06T03:20:56.434Z,17.85
2018-09-06T03:21:56.498Z,17.71
2018-09-06T03:23:49.498Z,17.72
2018-09-06T03:24:49.553Z,17.79
2018-09-06T03:26:42.544Z,17.65
2018-09-06T03:27:42.609Z,17.79
2018-09-06T03:29:35.604Z,17.64
2018-09-06T03:30:35.662Z,17.67
2018-09-06T03:32:28.667Z,17.64
2018-09-06T03:33:28.723Z,17.64
2018-09-06T03:35:21.714Z,17.60
2018-09-06T03:36:21.784Z,17.67
2018-09-06T03:38:14.776Z,17.64
2018-09-06T03:39:14.831Z,17.56
2018-09-06T03:41:07.823Z,17.70
2018-09-06T03:42:07.887Z,17.70
2018-09-06T03:44:00.886Z,17.70
2018-09-06T03:45:00.944Z,17.74
2018-09-06T03:46:53.938Z,17.79
2018-09-06T03:47:54.003Z,17.65
2018-09-06T03:49:47.004Z,17.64
2018-09-06T03:50:47.059Z,17.59
2018-09-06T03:52:40.059Z,17.49
2018-09-06T03:53:40.114Z,17.59
2018-09-06T03:55:33.107Z,17.49
2018-09-06T03:56:33.167Z,17.45
2018-09-06T03:58:26.165Z,17.52
2018-09-06T03:59:26.219Z,17.44
2018-09-06T04:01:19.214Z,17.52
2018-09-06T04:02:19.282Z,17.38
2018-09-06T04:04:12.273Z,17.45
2018-09-06T04:05:12.327Z,17.41
2018-09-06T04:07:05.826Z,17.42
2018-09-06T04:08:05.887Z,17.33
2018-09-06T04:09:58.886Z,17.36
2018-09-06T04:10:58.940Z,17.30
2018-09-06T04:12:51.936Z,17.33
2018-09-06T04:13:51.993Z,17.36
2018-09-06T04:15:44.981Z,17.41
2018-09-06T04:16:45.045Z,17.36
2018-09-06T04:18:38.090Z,17.36
2018-09-06T04:19:38.098Z,17.59
2018-09-06T04:21:31.087Z,17.59
2018-09-06T04:22:31.148Z,17.51
2018-09-06T04:24:24.223Z,17.57
2018-09-06T04:25:24.202Z,17.64
2018-09-06T04:27:17.188Z,17.65
2018-09-06T04:28:17.254Z,17.70
2018-09-06T04:30:10.252Z,17.67
2018-09-06T04:31:10.307Z,17.64
2018-09-06T04:33:03.304Z,17.60
2018-09-06T04:34:03.364Z,17.65
2018-09-06T04:35:56.419Z,17.59
2018-09-06T04:36:56.415Z,17.63
2018-09-06T04:38:49.415Z,17.57
2018-09-06T04:39:49.476Z,17.65
2018-09-06T04:41:42.472Z,17.51
2018-09-06T04:42:42.532Z,17.52
2018-09-06T04:44:35.531Z,17.56
2018-09-06T04:45:35.588Z,17.56
2018-09-06T04:47:28.577Z,17.54
2018-09-06T04:48:28.643Z,17.57
2018-09-06T04:50:21.647Z,17.54
2018-09-06T04:51:21.703Z,17.60
2018-09-06T04:53:14.701Z,17.60
2018-09-06T04:54:14.758Z,17.54
2018-09-06T04:56:07.759Z,17.64
2018-09-06T04:57:07.819Z,17.57
2018-09-06T04:59:00.817Z,17.64
2018-09-06T05:00:00.877Z,17.76
2018-09-06T05:01:53.872Z,17.79
2018-09-06T05:02:53.931Z,17.87
2018-09-06T05:04:46.933Z,17.92
2018-09-06T05:05:46.989Z,17.94
2018-09-06T05:07:39.981Z,17.90
2018-09-06T05:08:40.066Z,17.98
2018-09-06T05:10:33.045Z,18.07
2018-09-06T05:11:33.107Z,18.04
2018-09-06T05:13:26.137Z,18.05
2018-09-06T05:14:26.164Z,18.03
2018-09-06T05:16:19.160Z,18.11
2018-09-06T05:17:19.219Z,18.10
2018-09-06T05:19:12.218Z,18.04
2018-09-06T05:20:12.272Z,18.15
2018-09-06T05:22:05.308Z,18.11
2018-09-06T05:23:05.333Z,18.15
2018-09-06T05:24:58.334Z,18.20
2018-09-06T05:25:58.393Z,18.22
2018-09-06T05:27:51.391Z,18.18
2018-09-06T05:28:51.458Z,18.19
2018-09-06T05:30:44.483Z,18.20
2018-09-06T05:31:44.510Z,18.23
2018-09-06T05:33:37.507Z,18.16
2018-09-06T05:34:37.562Z,18.20
2018-09-06T05:36:30.596Z,18.18
2018-09-06T05:37:30.629Z,18.18
2018-09-06T05:39:23.617Z,18.07
2018-09-06T05:40:23.672Z,18.10
2018-09-06T05:42:16.668Z,18.16
2018-09-06T05:43:16.734Z,18.19
2018-09-06T05:45:09.732Z,18.16
2018-09-06T05:46:09.796Z,18.15
2018-09-06T05:48:02.785Z,18.22
2018-09-06T05:49:02.850Z,18.13
2018-09-06T05:50:55.848Z,18.37
2018-09-06T05:51:55.908Z,18.35
2018-09-06T05:53:48.915Z,18.34
2018-09-06T05:54:48.962Z,18.41
2018-09-06T05:56:41.960Z,18.45
2018-09-06T05:57:42.023Z,18.47
2018-09-06T05:59:35.029Z,18.44
2018-09-06T06:00:35.075Z,18.44
2018-09-06T06:02:28.075Z,18.55
2018-09-06T06:03:28.129Z,18.41
2018-09-06T06:05:21.164Z,18.62
2018-09-06T06:06:21.192Z,18.59
2018-09-06T06:08:14.190Z,18.60
2018-09-06T06:09:14.252Z,18.63
2018-09-06T06:11:07.248Z,18.71
2018-09-06T06:12:07.306Z,18.80
2018-09-06T06:14:00.314Z,18.99
2018-09-06T06:15:00.367Z,18.98
2018-09-06T06:16:53.356Z,19.30
2018-09-06T06:17:53.423Z,19.37
2018-09-06T06:19:46.423Z,19.48
2018-09-06T06:20:46.483Z,19.69
2018-09-06T06:22:39.473Z,19.82
2018-09-06T06:23:39.535Z,19.85
2018-09-06T06:25:32.560Z,20.02
2018-09-06T06:26:32.596Z,20.19
2018-09-06T06:28:25.590Z,20.36
2018-09-06T06:29:25.664Z,20.47
2018-09-06T06:31:18.651Z,20.39
2018-09-06T06:32:18.763Z,20.48
2018-09-06T06:34:11.707Z,20.55
2018-09-06T06:35:11.770Z,20.62
2018-09-06T06:37:04.769Z,20.69
2018-09-06T06:38:04.826Z,20.82
2018-09-06T06:39:57.884Z,21.02
2018-09-06T06:40:57.882Z,21.00
2018-09-06T06:42:50.876Z,22.04
2018-09-06T06:43:50.938Z,21.89
2018-09-06T06:45:43.960Z,21.61
2018-09-06T06:46:43.995Z,21.79
2018-09-06T06:48:36.991Z,22.13
2018-09-06T06:49:37.053Z,22.00
2018-09-06T06:51:30.064Z,21.96
2018-09-06T06:52:30.126Z,21.89
2018-09-06T06:54:23.129Z,22.06
2018-09-06T06:55:23.185Z,22.02
2018-09-06T06:57:16.188Z,22.32
2018-09-06T06:58:16.248Z,22.41
2018-09-06T07:00:09.247Z,22.38
2018-09-06T07:01:09.306Z,22.33
2018-09-06T07:03:02.298Z,22.20
2018-09-06T07:04:02.415Z,22.08
2018-09-06T07:05:55.368Z,21.83
2018-09-06T07:06:55.459Z,21.76
2018-09-06T07:08:48.423Z,21.98
2018-09-06T07:09:48.484Z,22.10
2018-09-06T07:11:41.484Z,22.17
2018-09-06T07:12:41.543Z,22.06
2018-09-06T07:14:34.538Z,21.88
2018-09-06T07:15:34.607Z,21.82
2018-09-06T07:17:27.605Z,21.60
2018-09-06T07:18:27.732Z,21.55
2018-09-06T07:20:20.665Z,21.43
2018-09-06T07:21:20.724Z,21.39
2018-09-06T07:23:13.719Z,21.30
2018-09-06T07:24:13.785Z,21.22
2018-09-06T07:26:06.858Z,21.12
2018-09-06T07:27:06.872Z,21.09
2018-09-06T07:28:59.863Z,21.03
2018-09-06T07:29:59.913Z,21.02
2018-09-06T07:31:52.954Z,20.92
2018-09-06T07:32:52.994Z,20.92
2018-09-06T07:34:45.980Z,20.80
2018-09-06T07:35:46.038Z,20.69
2018-09-06T07:37:39.022Z,20.67
2018-09-06T07:38:39.100Z,20.70
2018-09-06T07:40:32.174Z,20.65
2018-09-06T07:41:32.242Z,20.55
2018-09-06T07:43:25.128Z,20.47
2018-09-06T07:44:25.199Z,20.34
2018-09-06T07:46:18.273Z,20.39
2018-09-06T07:47:18.245Z,20.32
2018-09-06T07:49:11.275Z,20.25
2018-09-06T07:50:11.397Z,20.26
2018-09-06T07:52:04.361Z,20.24
2018-09-06T07:53:04.383Z,20.16
2018-09-06T07:54:57.391Z,20.21
2018-09-06T07:55:57.408Z,20.11
2018-09-06T07:57:50.458Z,20.07
2018-09-06T07:58:50.468Z,20.06
2018-09-06T08:00:43.471Z,20.11
2018-09-06T08:01:43.629Z,20.19
2018-09-06T08:03:36.546Z,20.22
2018-09-06T08:04:36.611Z,20.22
2018-09-06T08:06:30.094Z,20.22
2018-09-06T08:07:30.180Z,20.25
2018-09-06T08:09:23.161Z,20.40
2018-09-06T08:10:23.240Z,20.39
2018-09-06T08:12:16.319Z,20.39
2018-09-06T08:13:16.262Z,20.48
2018-09-06T08:15:09.278Z,20.34
2018-09-06T08:16:09.335Z,20.47
2018-09-06T08:18:02.392Z,20.39
2018-09-06T08:19:02.376Z,20.43
2018-09-06T08:20:55.421Z,20.39
2018-09-06T08:21:55.447Z,20.48
2018-09-06T08:23:48.448Z,20.52
2018-09-06T08:24:48.515Z,20.52
2018-09-06T08:26:41.505Z,20.56
2018-09-06T08:27:41.563Z,20.59
2018-09-06T08:29:34.573Z,20.63
2018-09-06T08:30:34.677Z,20.60
2018-09-06T08:32:27.605Z,20.63
2018-09-06T08:33:27.664Z,20.65
2018-09-06T08:35:20.659Z,20.55
2018-09-06T08:36:20.722Z,20.58
2018-09-06T08:38:13.722Z,20.66
2018-09-06T08:39:13.779Z,20.66
2018-09-06T08:41:06.780Z,20.78
2018-09-06T08:42:06.837Z,20.77
2018-09-06T08:43:59.831Z,20.88
2018-09-06T08:44:59.896Z,20.84
2018-09-06T08:46:52.896Z,20.96
2018-09-06T08:47:52.952Z,20.92
2018-09-06T08:49:45.945Z,20.99
2018-09-06T08:50:46.012Z,20.99
2018-09-06T08:52:39.007Z,20.96
2018-09-06T08:53:39.067Z,20.90
2018-09-06T08:55:32.059Z,20.96
2018-09-06T08:56:32.124Z,20.95
2018-09-06T08:58:25.180Z,21.02
2018-09-06T08:59:25.178Z,21.05
2018-09-06T09:01:18.181Z,21.02
2018-09-06T09:02:18.310Z,21.02
2018-09-06T09:04:11.236Z,20.85
2018-09-06T09:05:11.297Z,20.85
2018-09-06T09:07:04.806Z,20.80
2018-09-06T09:08:04.863Z,20.75
2018-09-06T09:09:57.854Z,20.72
2018-09-06T09:10:57.920Z,20.67
2018-09-06T09:12:50.925Z,20.67
2018-09-06T09:13:50.977Z,20.56
2018-09-06T09:15:43.974Z,20.58
2018-09-06T09:16:44.036Z,20.56
2018-09-06T09:18:37.036Z,20.31
2018-09-06T09:19:37.097Z,20.28
2018-09-06T09:21:30.118Z,20.24
2018-09-06T09:22:30.153Z,20.28
2018-09-06T09:24:23.145Z,20.19
2018-09-06T09:25:23.223Z,20.28
2018-09-06T09:27:16.262Z,20.26
2018-09-06T09:28:16.268Z,20.13
2018-09-06T09:30:09.260Z,20.07
2018-09-06T09:31:09.323Z,20.03
2018-09-06T09:33:02.322Z,19.96
2018-09-06T09:34:02.384Z,19.91
2018-09-06T09:35:55.401Z,19.92
2018-09-06T09:36:55.435Z,19.85
2018-09-06T09:38:48.436Z,19.81
2018-09-06T09:39:48.494Z,19.82
2018-09-06T09:41:41.491Z,19.79
2018-09-06T09:42:41.552Z,19.77
2018-09-06T09:44:34.540Z,19.70
2018-09-06T09:45:34.604Z,19.70
2018-09-06T09:47:48.644Z,19.73
2018-09-06T09:49:20.591Z,19.70
2018-09-06T09:51:32.962Z,19.70
2018-09-06T09:52:33.022Z,19.73
2018-09-06T09:54:26.013Z,19.82
2018-09-06T09:55:26.078Z,19.91
2018-09-06T09:57:19.074Z,19.82
2018-09-06T09:58:19.131Z,19.76
2018-09-06T10:00:12.122Z,19.88
2018-09-06T10:01:12.185Z,19.81
2018-09-06T10:03:05.184Z,19.82
2018-09-06T10:04:05.239Z,19.79
2018-09-06T10:05:58.236Z,19.76
2018-09-06T10:06:58.297Z,19.79
2018-09-06T10:08:51.298Z,19.92
2018-09-06T10:09:51.352Z,19.74
2018-09-06T10:11:44.351Z,19.81
2018-09-06T10:12:44.407Z,19.81
2018-09-06T10:14:37.399Z,19.77
2018-09-06T10:15:37.461Z,19.76
2018-09-06T10:17:30.465Z,19.79
2018-09-06T10:18:30.521Z,19.76
2018-09-06T10:20:23.510Z,19.70
2018-09-06T10:21:23.576Z,19.69
2018-09-06T10:23:16.573Z,19.70
2018-09-06T10:24:16.629Z,19.70
2018-09-06T10:26:09.621Z,19.84
2018-09-06T10:27:09.685Z,19.76
2018-09-06T10:29:02.687Z,19.74
2018-09-06T10:30:02.749Z,19.74
2018-09-06T10:31:55.734Z,19.67
2018-09-06T10:32:55.799Z,19.73
2018-09-06T10:34:48.801Z,19.71
2018-09-06T10:35:48.853Z,19.76
2018-09-06T10:37:41.853Z,19.66
2018-09-06T10:38:41.912Z,19.74
2018-09-06T10:40:34.970Z,19.74
2018-09-06T10:41:34.964Z,19.77
2018-09-06T10:43:27.963Z,19.74
2018-09-06T10:44:28.080Z,19.88
2018-09-06T10:46:21.014Z,19.74
2018-09-06T10:47:21.078Z,19.70
2018-09-06T10:49:14.079Z,19.70
2018-09-06T10:50:14.136Z,19.54
2018-09-06T10:52:07.128Z,19.55
2018-09-06T10:53:07.194Z,19.54
2018-09-06T10:55:00.191Z,19.48
2018-09-06T10:56:00.246Z,19.48
2018-09-06T10:57:53.263Z,19.41
2018-09-06T10:58:53.305Z,19.39
2018-09-06T11:00:46.452Z,19.41
2018-09-06T11:01:46.364Z,19.41
2018-09-06T11:03:39.365Z,19.41
2018-09-06T11:04:39.423Z,19.52
2018-09-06T11:06:32.923Z,19.37
2018-09-06T11:07:32.985Z,19.51
2018-09-06T11:09:25.984Z,19.49
2018-09-06T11:10:26.032Z,19.45
2018-09-06T11:12:19.040Z,19.39
2018-09-06T11:13:19.099Z,19.40
2018-09-06T11:15:12.099Z,19.34
2018-09-06T11:16:12.154Z,19.34
2018-09-06T11:18:05.192Z,19.41
2018-09-06T11:19:05.210Z,19.30
2018-09-06T11:20:58.229Z,19.39
2018-09-06T11:21:58.380Z,19.33
2018-09-06T11:23:51.274Z,19.37
2018-09-06T11:24:51.323Z,19.47
2018-09-06T11:26:44.319Z,19.49
2018-09-06T11:27:44.400Z,19.49
2018-09-06T11:29:37.379Z,19.51
2018-09-06T11:30:37.437Z,19.58
2018-09-06T11:32:30.429Z,19.64
2018-09-06T11:33:30.492Z,19.56
2018-09-06T11:35:23.492Z,19.55
2018-09-06T11:36:23.554Z,19.59
2018-09-06T11:38:16.560Z,19.41
2018-09-06T11:39:16.612Z,19.54
2018-09-06T11:41:09.605Z,19.47
2018-09-06T11:42:09.668Z,19.45
2018-09-06T11:44:02.682Z,19.40
2018-09-06T11:45:02.741Z,19.30
2018-09-06T11:46:55.814Z,19.41
2018-09-06T11:47:55.824Z,19.33
2018-09-06T11:49:48.808Z,19.27
2018-09-06T11:50:48.847Z,19.11
2018-09-06T11:52:41.840Z,19.09
2018-09-06T11:53:41.905Z,19.22
2018-09-06T11:55:34.902Z,19.08
2018-09-06T11:56:34.955Z,19.18
2018-09-06T11:58:27.955Z,19.26
2018-09-06T11:59:28.012Z,19.22
2018-09-06T12:01:21.006Z,19.34
2018-09-06T12:02:21.067Z,19.33
2018-09-06T12:04:14.065Z,19.40
2018-09-06T12:05:14.125Z,19.47
2018-09-06T12:07:07.122Z,19.44
2018-09-06T12:08:07.179Z,19.45
2018-09-06T12:10:00.181Z,19.51
2018-09-06T12:11:00.232Z,19.58
2018-09-06T12:12:53.235Z,19.44
2018-09-06T12:13:53.373Z,19.49
2018-09-06T12:15:46.292Z,19.41
2018-09-06T12:16:46.359Z,19.44
2018-09-06T12:18:39.357Z,19.44
2018-09-06T12:19:39.414Z,19.44
2018-09-06T12:21:32.431Z,19.51
2018-09-06T12:22:32.468Z,19.48
2018-09-06T12:24:25.477Z,19.58
2018-09-06T12:25:25.633Z,19.67
2018-09-06T12:27:18.518Z,19.58
2018-09-06T12:28:18.580Z,19.73
2018-09-06T12:30:11.590Z,19.86
2018-09-06T12:31:11.662Z,19.84
2018-09-06T12:33:04.675Z,19.91
2018-09-06T12:34:04.708Z,19.99
2018-09-06T12:35:57.710Z,20.02
2018-09-06T12:36:57.763Z,20.06
2018-09-06T12:38:50.763Z,19.92
2018-09-06T12:39:50.821Z,19.85
2018-09-06T12:41:43.813Z,19.89
2018-09-06T12:42:43.877Z,19.86
2018-09-06T12:44:36.879Z,19.99
2018-09-06T12:45:36.976Z,19.96
2018-09-06T12:47:29.928Z,20.03
2018-09-06T12:48:29.993Z,20.18
2018-09-06T12:50:22.990Z,20.06
2018-09-06T12:51:23.048Z,19.96
2018-09-06T12:53:16.061Z,20.07
2018-09-06T12:54:16.124Z,20.04
2018-09-06T12:56:09.128Z,20.09
2018-09-06T12:57:09.184Z,20.03
2018-09-06T12:59:02.182Z,20.02
2018-09-06T13:00:02.240Z,20.04
2018-09-06T13:01:55.742Z,20.19
2018-09-06T13:02:55.803Z,20.14
2018-09-06T13:04:48.800Z,20.16
2018-09-06T13:05:48.857Z,20.19
2018-09-06T13:07:41.857Z,20.36
2018-09-06T13:08:41.916Z,20.37
2018-09-06T13:10:35.070Z,20.37
2018-09-06T13:11:34.974Z,20.43
2018-09-06T13:13:27.971Z,20.48
2018-09-06T13:14:28.131Z,20.48
2018-09-06T13:16:21.051Z,20.43
2018-09-06T13:17:21.113Z,20.34
2018-09-06T13:19:14.171Z,20.40
2018-09-06T13:20:14.169Z,20.32
2018-09-06T13:22:07.162Z,20.43
2018-09-06T13:23:07.225Z,20.36
2018-09-06T13:25:00.226Z,20.41
2018-09-06T13:26:00.284Z,20.48
2018-09-06T13:27:53.277Z,20.66
2018-09-06T13:28:53.341Z,20.67
2018-09-06T13:30:46.341Z,20.81
2018-09-06T13:31:46.395Z,20.81
2018-09-06T13:33:39.391Z,20.77
2018-09-06T13:34:39.454Z,20.70
2018-09-06T13:36:32.455Z,20.84
2018-09-06T13:37:32.510Z,20.99
2018-09-06T13:39:25.515Z,21.05
2018-09-06T13:40:25.573Z,21.14
2018-09-06T13:42:18.574Z,21.32
2018-09-06T13:43:18.641Z,21.30
2018-09-06T13:45:11.644Z,21.54
2018-09-06T13:46:11.699Z,21.43
2018-09-06T13:48:04.701Z,21.43
2018-09-06T13:49:04.764Z,21.27
2018-09-06T13:50:57.765Z,21.27
2018-09-06T13:51:57.821Z,21.30
2018-09-06T13:53:50.843Z,21.14
2018-09-06T13:54:50.882Z,21.07
2018-09-06T13:56:43.882Z,21.14
2018-09-06T13:57:43.941Z,21.21
2018-09-06T13:59:36.943Z,21.32
2018-09-06T14:00:37.002Z,21.21
2018-09-06T14:02:29.994Z,21.33
2018-09-06T14:03:30.083Z,21.42
2018-09-06T14:05:23.058Z,21.46
2018-09-06T14:06:23.117Z,21.43
2018-09-06T14:08:16.115Z,21.43
2018-09-06T14:09:16.179Z,21.45
2018-09-06T14:11:09.181Z,21.46
2018-09-06T14:12:09.243Z,21.43
2018-09-06T14:14:02.235Z,21.50
2018-09-06T14:15:02.301Z,21.54
2018-09-06T14:16:55.336Z,21.73
2018-09-06T14:17:55.361Z,21.77
2018-09-06T14:19:48.366Z,21.66
2018-09-06T14:20:48.421Z,21.58
2018-09-06T14:22:41.420Z,21.50
2018-09-06T14:23:41.481Z,21.48
2018-09-06T14:25:34.490Z,21.55
2018-09-06T14:26:34.550Z,21.60
2018-09-06T14:28:27.553Z,21.83
2018-09-06T14:29:27.616Z,21.89
2018-09-06T14:31:20.613Z,21.75
2018-09-06T14:32:20.667Z,21.79
2018-09-06T14:34:13.662Z,21.92
2018-09-06T14:35:13.724Z,21.88
2018-09-06T14:37:06.725Z,22.08
2018-09-06T14:38:06.836Z,22.10
2018-09-06T14:39:59.784Z,22.17
2018-09-06T14:40:59.866Z,22.06
2018-09-06T14:42:53.745Z,21.82
2018-09-06T14:43:53.852Z,21.75
2018-09-06T14:45:46.811Z,21.60
2018-09-06T14:46:46.871Z,21.46
2018-09-06T14:48:39.866Z,21.45
2018-09-06T14:49:39.930Z,21.36
2018-09-06T14:51:32.932Z,21.45
2018-09-06T14:52:32.988Z,21.33
2018-09-06T14:54:25.983Z,21.29
2018-09-06T14:55:26.049Z,21.29
2018-09-06T14:57:19.086Z,21.30
2018-09-06T14:58:19.109Z,21.42
2018-09-06T15:00:12.104Z,21.46
2018-09-06T15:01:12.163Z,21.52
2018-09-06T15:03:05.166Z,21.42
2018-09-06T15:04:05.224Z,21.48
2018-09-06T15:05:58.223Z,21.50
2018-09-06T15:06:58.282Z,21.42
2018-09-06T15:08:51.807Z,21.37
2018-09-06T15:09:51.468Z,21.33
2018-09-06T15:11:44.417Z,21.27
2018-09-06T15:12:44.478Z,21.29
2018-09-06T15:14:37.473Z,21.30
2018-09-06T15:15:37.540Z,21.25
2018-09-06T15:17:30.541Z,21.24
2018-09-06T15:18:30.598Z,21.30
2018-09-06T15:20:23.599Z,21.30
2018-09-06T15:21:23.656Z,21.30
2018-09-06T15:23:16.648Z,21.30
2018-09-06T15:24:16.717Z,21.32
2018-09-06T15:26:09.715Z,21.40
2018-09-06T15:27:09.772Z,21.42
2018-09-06T15:29:02.764Z,21.48
2018-09-06T15:30:02.827Z,21.55
2018-09-06T15:31:55.827Z,21.61
2018-09-06T15:32:55.889Z,21.60
2018-09-06T15:34:48.881Z,21.69
2018-09-06T15:35:48.943Z,21.79
2018-09-06T15:37:41.949Z,21.82
2018-09-06T15:38:42.019Z,21.77
2018-09-06T15:40:35.009Z,21.77
2018-09-06T15:41:35.068Z,21.62
2018-09-06T15:43:28.082Z,21.72
2018-09-06T15:44:28.127Z,21.64
2018-09-06T15:46:21.131Z,21.66
2018-09-06T15:47:21.186Z,21.67
2018-09-06T15:49:14.183Z,21.67
2018-09-06T15:50:14.247Z,21.69
2018-09-06T15:52:07.247Z,21.95
2018-09-06T15:53:07.307Z,21.98
2018-09-06T15:55:00.306Z,22.22
2018-09-06T15:56:00.367Z,22.18
2018-09-06T15:57:53.366Z,22.17
2018-09-06T15:58:53.427Z,22.14
2018-09-06T16:00:46.442Z,22.06
2018-09-06T16:01:46.493Z,21.91
2018-09-06T16:03:39.477Z,21.73
2018-09-06T16:04:39.542Z,21.60
2018-09-06T16:06:32.545Z,21.57
2018-09-06T16:07:32.608Z,21.46
2018-09-06T16:09:25.604Z,21.46
2018-09-06T16:10:25.666Z,21.50
2018-09-06T16:12:18.704Z,21.50
2018-09-06T16:13:18.723Z,21.52
2018-09-06T16:15:11.723Z,21.50
2018-09-06T16:16:11.796Z,21.60
2018-09-06T16:18:04.779Z,21.42
2018-09-06T16:19:04.838Z,21.45
2018-09-06T16:20:57.862Z,21.32
2018-09-06T16:21:57.903Z,21.14
2018-09-06T16:23:50.888Z,21.12
2018-09-06T16:24:50.954Z,21.11
2018-09-06T16:26:43.953Z,20.99
2018-09-06T16:27:44.013Z,20.97
2018-09-06T16:29:37.003Z,21.00
2018-09-06T16:30:37.068Z,20.96
2018-09-06T16:32:30.067Z,20.87
2018-09-06T16:33:30.125Z,20.92
2018-09-06T16:35:23.118Z,20.90
2018-09-06T16:36:23.186Z,20.87
2018-09-06T16:38:16.180Z,20.85
2018-09-06T16:39:16.237Z,20.88
2018-09-06T16:41:09.241Z,20.82
2018-09-06T16:42:09.302Z,20.74
2018-09-06T16:44:02.288Z,20.72
2018-09-06T16:45:02.353Z,20.67
2018-09-06T16:46:55.352Z,20.69
2018-09-06T16:47:55.416Z,20.65
2018-09-06T16:49:48.423Z,20.67
2018-09-06T16:50:48.561Z,20.63
2018-09-06T16:52:41.468Z,20.66
2018-09-06T16:53:41.524Z,20.67
2018-09-06T16:55:34.552Z,20.69
2018-09-06T16:56:34.618Z,20.67
2018-09-06T16:58:27.616Z,20.66
2018-09-06T16:59:27.673Z,20.72
2018-09-06T17:01:21.181Z,20.66
2018-09-06T17:02:21.238Z,20.56
2018-09-06T17:04:14.244Z,20.62
2018-09-06T17:05:14.301Z,20.59
2018-09-06T17:07:07.299Z,20.60
2018-09-06T17:08:07.357Z,20.62
2018-09-06T17:10:00.356Z,20.60
2018-09-06T17:11:00.418Z,20.50
2018-09-06T17:12:53.418Z,20.56
2018-09-06T17:13:53.474Z,20.52
2018-09-06T17:15:46.464Z,20.50
2018-09-06T17:16:46.528Z,20.51
2018-09-06T17:18:39.532Z,20.47
2018-09-06T17:19:39.589Z,20.47
2018-09-06T17:21:32.578Z,20.36
2018-09-06T17:22:32.641Z,20.44
2018-09-06T17:24:25.642Z,20.34
2018-09-06T17:25:25.699Z,20.41
2018-09-06T17:27:18.700Z,20.44
2018-09-06T17:28:18.760Z,20.34
2018-09-06T17:30:11.751Z,20.29
2018-09-06T17:31:11.814Z,20.25
2018-09-06T17:33:04.868Z,20.24
2018-09-06T17:34:04.869Z,20.28
2018-09-06T17:35:57.861Z,20.28
2018-09-06T17:36:57.931Z,20.22
2018-09-06T17:38:51.012Z,20.21
2018-09-06T17:39:50.984Z,20.25
2018-09-06T17:41:43.981Z,20.16
2018-09-06T17:42:44.040Z,20.21
2018-09-06T17:44:37.042Z,20.16
2018-09-06T17:45:37.099Z,20.14
2018-09-06T17:47:30.103Z,20.19
2018-09-06T17:48:30.155Z,20.18
2018-09-06T17:50:23.149Z,20.07
2018-09-06T17:51:23.210Z,20.07
2018-09-06T17:53:16.227Z,20.14
2018-09-06T17:54:16.273Z,20.18
2018-09-06T17:56:09.263Z,20.11
2018-09-06T17:57:09.325Z,20.16
2018-09-06T17:59:02.330Z,20.09
2018-09-06T18:00:02.391Z,20.06
2018-09-06T18:01:56.881Z,20.04
2018-09-06T18:02:56.940Z,20.03
2018-09-06T18:04:49.939Z,20.02
2018-09-06T18:05:49.998Z,20.06
2018-09-06T18:07:43.017Z,19.94
2018-09-06T18:08:43.053Z,20.03
2018-09-06T18:10:36.048Z,20.04
2018-09-06T18:11:36.113Z,20.04
2018-09-06T18:13:29.150Z,19.95
2018-09-06T18:14:29.166Z,19.99
2018-09-06T18:16:22.173Z,20.03
2018-09-06T18:17:22.274Z,19.94
2018-09-06T18:19:15.254Z,19.94
2018-09-06T18:20:15.311Z,19.94
2018-09-06T18:22:08.287Z,19.89
2018-09-06T18:23:08.353Z,19.96
2018-09-06T18:25:01.362Z,19.84
2018-09-06T18:26:01.421Z,19.84
2018-09-06T18:27:54.417Z,19.99
2018-09-06T18:28:54.473Z,20.00
2018-09-06T18:30:47.465Z,19.92
2018-09-06T18:31:47.548Z,19.82
2018-09-06T18:33:40.527Z,19.84
2018-09-06T18:34:40.583Z,19.86